Startpagina
METAR-TAF:

METAR-TAF

Vliegvelden :

Yellowstone Airport

West Yellowstone, Montana, Verenigde Staten

breedte: 44-39N, lengte: 111-06W, hoogte: 2031 m

Actueel weer

Dit bericht is 26 minuten geleden gemaakt, om 12:35 UTC
Wind 5 kt uit het zuidzuidwesten
Temperatuur 7°C
Vochtigheid 100%
Druk 1026 hPa
Zicht: 16.1 km
Onbewolkt

METAR: KWYS 171235Z AUTO 20005KT 10SM CLR 07/07 A3031 RMK AO2

Tijdstip: 07:01 (13:01 UTC)


TAF: ontbreekt

Waarnemingen en weersverwachtingen van meer dan 4000 vliegvelden (METAR en TAF).

De beschikbare stations zijn de gele en rode punten op de kaart.

Ga met uw muis naar het station om de naam te zien.

Klik dan om waarnemingen en weersverwachtingen te zien.

kaart wijzigen: klik op de groene knoppen met een zwart kruis om in te zoomen, op de groene knop met een streepje om uit te zoomen of op de groene pijlen voor aangrenzende kaarten.


METAR-TAF: